Time;durP1;ratioP1;P1;durP2;ratioP2;P2;SDS_P1;SDS_P2;PMS_P1;PMS_P2;Temp;Humidity;BMP_temperature;BMP_pressure;BME280_temperature;BME280_humidity;BME280_pressure;Samples;Min_cycle;Max_cycle;Signal;HPM_P1;HPM_P2
2021/12/24 00:01:57;;;;;;;28.52;14.38;;;;;;;1.02;100.00;94459.34;5042775;28;20060;-83
2021/12/24 00:04:23;;;;;;;34.38;15.23;;;;;;;1.22;100.00;94466.19;5059040;28;20028;-83
2021/12/24 00:06:49;;;;;;;33.50;16.15;;;;;;;1.17;100.00;94464.25;5059099;28;20483;-81
2021/12/24 00:09:21;;;;;;;35.10;16.50;;;;;;;1.04;100.00;94453.97;5042667;28;20030;-80
2021/12/24 00:11:48;;;;;;;35.30;16.58;;;;;;;0.65;100.00;94441.81;5059960;28;20020;-83
2021/12/24 00:14:14;;;;;;;29.83;15.32;;;;;;;0.64;100.00;94442.81;5058916;28;20078;-82
2021/12/24 00:16:44;;;;;;;33.10;16.85;;;;;;;0.74;100.00;94433.84;5059363;28;20024;-82
2021/12/24 00:35:40;;;;;;;36.05;17.67;;;;;;;-0.13;100.00;94430.41;5061390;28;20086;-82
2021/12/24 00:38:10;;;;;;;37.72;17.90;;;;;;;-0.28;100.00;94407.44;5058671;28;20384;-82
2021/12/24 00:40:39;;;;;;;40.25;19.10;;;;;;;-0.15;100.00;94416.94;5058687;28;20027;-83
2021/12/24 00:43:05;;;;;;;36.17;17.08;;;;;;;0.07;100.00;94412.38;5058615;28;20020;-82
2021/12/24 00:45:33;;;;;;;36.20;17.77;;;;;;;-0.05;100.00;94413.97;5042173;28;20020;-82
2021/12/24 00:48:00;;;;;;;33.70;16.35;;;;;;;-0.10;100.00;94419.72;5058613;28;20085;-82
2021/12/24 00:50:28;;;;;;;35.13;17.85;;;;;;;-0.13;100.00;94414.19;5059135;28;20452;-80
2021/12/24 00:53:02;;;;;;;40.05;18.23;;;;;;;-0.12;100.00;94419.13;5076445;28;20024;-82
2021/12/24 00:55:30;;;;;;;37.72;18.33;;;;;;;-0.05;100.00;94411.41;5059653;28;20344;-82
2021/12/24 00:58:03;;;;;;;38.55;17.65;;;;;;;-0.05;100.00;94413.97;5041934;28;20028;-82
2021/12/24 01:00:33;;;;;;;37.55;17.25;;;;;;;-0.02;100.00;94413.56;5058602;28;20020;-82
2021/12/24 01:03:01;;;;;;;42.95;19.08;;;;;;;0.05;100.00;94410.97;5058464;28;20020;-82
2021/12/24 01:05:28;;;;;;;39.80;19.13;;;;;;;0.17;100.00;94414.53;5058339;28;20020;-82
2021/12/24 01:07:53;;;;;;;36.53;19.15;;;;;;;0.25;100.00;94413.53;5045722;28;20389;-82
2021/12/24 01:10:22;;;;;;;40.80;18.00;;;;;;;0.29;100.00;94425.03;5046044;28;20055;-82
2021/12/24 01:12:50;;;;;;;40.03;19.30;;;;;;;0.38;100.00;94421.25;5045614;28;20032;-82
2021/12/24 01:15:16;;;;;;;34.28;17.30;;;;;;;0.47;100.00;94428.78;5062411;28;20036;-82
2021/12/24 01:18:12;;;;;;;35.88;17.55;;;;;;;0.54;100.00;94430.34;5045789;28;20028;-82
2021/12/24 01:25:55;;;;;;;34.50;16.25;;;;;;;0.60;100.00;94421.00;5079944;28;20124;-82
2021/12/24 01:44:30;;;;;;;36.22;16.33;;;;;;;0.15;100.00;94423.47;5064397;28;20031;-80
2021/12/24 01:47:00;;;;;;;33.03;15.60;;;;;;;0.15;100.00;94416.53;5061752;28;20179;-82
2021/12/24 01:49:26;;;;;;;36.50;16.15;;;;;;;0.07;100.00;94420.09;5061675;28;20020;-82
2021/12/24 01:51:52;;;;;;;37.55;16.65;;;;;;;0.16;100.00;94417.34;5062927;28;20111;-82
2021/12/24 01:54:18;;;;;;;35.35;16.35;;;;;;;0.28;100.00;94413.94;5081368;28;20035;-82
2021/12/24 01:56:44;;;;;;;34.28;16.05;;;;;;;0.22;100.00;94411.38;5081569;28;20032;-82
2021/12/24 01:59:10;;;;;;;31.15;15.57;;;;;;;0.07;100.00;94406.41;5081693;28;20045;-80
2021/12/24 02:01:36;;;;;;;37.08;16.65;;;;;;;0.01;100.00;94410.59;5081295;28;20028;-82
2021/12/24 02:04:02;;;;;;;35.65;17.45;;;;;;;0.03;100.00;94411.19;5064514;28;20036;-82
2021/12/24 02:06:27;;;;;;;37.90;17.60;;;;;;;-0.06;100.00;94394.34;5081410;28;20027;-82
2021/12/24 02:08:53;;;;;;;36.78;17.02;;;;;;;-0.08;100.00;94396.34;5081604;28;20020;-82
2021/12/24 02:11:18;;;;;;;39.67;18.02;;;;;;;0.04;100.00;94399.91;5081408;28;20035;-82
2021/12/24 02:13:44;;;;;;;37.72;17.88;;;;;;;0.12;100.00;94386.78;5081255;28;20068;-82
2021/12/24 02:16:34;;;;;;;42.80;19.23;;;;;;;0.17;100.00;94395.72;5064643;28;20028;-82
2021/12/24 02:29:57;;;;;;;36.58;16.65;;;;;;;0.05;100.00;94370.56;5083798;28;20039;-82
2021/12/24 02:32:23;;;;;;;35.83;17.58;;;;;;;0.28;100.00;94366.75;5080952;28;20024;-83
2021/12/24 02:34:48;;;;;;;41.47;17.65;;;;;;;0.44;100.00;94357.00;5080850;28;20051;-82
2021/12/24 02:37:14;;;;;;;38.75;18.10;;;;;;;0.58;100.00;94362.88;5080841;28;20113;-83
2021/12/24 02:39:39;;;;;;;34.05;17.60;;;;;;;0.79;100.00;94357.47;5080843;28;20024;-82
2021/12/24 02:42:20;;;;;;;32.88;16.13;;;;;;;0.81;100.00;94359.81;5080778;28;20054;-82
2021/12/24 02:44:47;;;;;;;32.42;16.58;;;;;;;0.86;100.00;94361.78;5080615;28;20026;-82
2021/12/24 02:55:06;;;;;;;28.17;14.63;;;;;;;1.33;100.00;94348.59;5083007;28;20340;-82
2021/12/24 02:57:34;;;;;;;28.10;14.43;;;;;;;1.44;100.00;94349.72;5080481;28;20031;-83
2021/12/24 03:00:06;;;;;;;35.17;13.50;;;;;;;1.48;100.00;94336.19;5064490;28;20441;-83
2021/12/24 03:02:31;;;;;;;24.67;13.10;;;;;;;1.47;100.00;94329.44;5081400;28;20028;-83
2021/12/24 03:04:57;;;;;;;27.40;13.30;;;;;;;1.31;100.00;94329.97;5063416;28;20047;-83
2021/12/24 03:07:23;;;;;;;24.38;13.20;;;;;;;1.12;100.00;94328.09;5063561;28;20067;-83
2021/12/24 03:09:48;;;;;;;37.22;17.70;;;;;;;0.93;100.00;94323.81;5063778;28;20028;-82
2021/12/24 03:12:14;;;;;;;35.45;16.65;;;;;;;0.79;100.00;94315.38;5080181;28;20498;-82
2021/12/24 03:14:39;;;;;;;36.90;17.13;;;;;;;0.57;100.00;94315.66;5079940;28;20028;-83
2021/12/24 03:17:10;;;;;;;39.83;18.00;;;;;;;0.26;100.00;94312.03;5080097;28;20035;-82
2021/12/24 03:19:36;;;;;;;39.95;17.30;;;;;;;0.06;100.00;94301.78;5080654;28;20030;-82
2021/12/24 03:24:36;;;;;;;39.53;18.20;;;;;;;-0.04;100.00;94300.44;5081010;28;20032;-82
2021/12/24 03:27:03;;;;;;;39.70;19.17;;;;;;;-0.13;100.00;94281.03;5080060;28;20028;-83
2021/12/24 03:29:28;;;;;;;37.72;18.70;;;;;;;-0.23;100.00;94290.97;5098045;28;20494;-80
2021/12/24 03:31:54;;;;;;;50.50;20.15;;;;;;;-0.25;100.00;94277.50;5063295;28;20036;-80
2021/12/24 03:34:21;;;;;;;40.95;18.90;;;;;;;-0.27;100.00;94284.63;5079597;28;20036;-80
2021/12/24 03:36:47;;;;;;;41.35;19.75;;;;;;;-0.27;100.00;94280.28;5079682;28;20023;-83
2021/12/24 03:39:13;;;;;;;38.10;17.05;;;;;;;-0.12;100.00;94295.50;5079549;28;20058;-80
2021/12/24 03:41:39;;;;;;;37.58;17.88;;;;;;;-0.04;100.00;94289.34;5063212;28;20073;-83
2021/12/24 03:44:07;;;;;;;39.28;18.33;;;;;;;0.22;100.00;94285.09;5079423;28;20032;-80
2021/12/24 03:46:42;;;;;;;41.60;18.25;;;;;;;0.33;100.00;94289.63;5079906;28;20031;-80
2021/12/24 03:49:17;;;;;;;40.47;19.17;;;;;;;0.51;100.00;94280.41;5097558;28;20448;-82
2021/12/24 03:51:58;;;;;;;38.47;16.77;;;;;;;0.70;100.00;94271.78;5080820;28;20024;-83
2021/12/24 03:57:08;;;;;;;34.25;16.75;;;;;;;0.54;100.00;94265.34;5082103;28;20085;-80
2021/12/24 03:59:33;;;;;;;31.75;16.83;;;;;;;0.65;100.00;94268.25;5079069;28;20036;-80
2021/12/24 04:01:58;;;;;;;33.97;16.00;;;;;;;0.73;100.00;94272.38;5079218;28;20032;-80
2021/12/24 04:04:24;;;;;;;33.72;15.73;;;;;;;0.82;100.00;94271.13;5079083;28;20035;-83
2021/12/24 04:06:49;;;;;;;30.05;13.38;;;;;;;0.80;100.00;94268.75;5079181;28;20028;-83
2021/12/24 04:09:18;;;;;;;29.95;14.20;;;;;;;0.81;100.00;94290.16;5079193;28;20020;-83
2021/12/24 04:11:44;;;;;;;29.85;15.35;;;;;;;1.11;100.00;94274.09;5079282;28;20028;-83
2021/12/24 04:14:10;;;;;;;34.72;15.68;;;;;;;0.89;100.00;94269.28;5078990;28;20338;-81
2021/12/24 04:16:36;;;;;;;35.20;17.33;;;;;;;0.67;100.00;94279.94;5078961;28;20028;-80
2021/12/24 04:27:14;;;;;;;43.30;16.40;;;;;;;0.98;100.00;94262.88;5097041;28;20055;-80
2021/12/24 04:29:39;;;;;;;35.22;16.80;;;;;;;0.88;100.00;94270.28;5078894;28;20020;-83
2021/12/24 04:32:21;;;;;;;36.17;16.33;;;;;;;0.60;100.00;94276.59;5057772;28;20124;-80
2021/12/24 04:34:50;;;;;;;39.03;17.08;;;;;;;0.75;100.00;94271.16;5096763;28;20034;-80
2021/12/24 05:04:30;;;;;;;42.05;18.88;;;;;;;0.11;100.00;94246.09;5052971;28;20031;-80
2021/12/24 05:07:04;;;;;;;39.75;17.77;;;;;;;0.03;100.00;94246.34;5075248;28;20441;-80
2021/12/24 05:09:31;;;;;;;46.15;18.90;;;;;;;0.09;100.00;94242.94;5075278;28;20020;-80
2021/12/24 05:11:57;;;;;;;38.55;18.83;;;;;;;0.18;100.00;94237.56;5042080;28;20127;-82
2021/12/24 05:14:22;;;;;;;44.33;20.35;;;;;;;0.28;100.00;94248.19;5041981;28;20485;-82
2021/12/24 05:16:50;;;;;;;41.75;19.50;;;;;;;0.28;100.00;94240.47;5075204;28;20337;-82
2021/12/24 05:21:48;;;;;;;37.75;17.60;;;;;;;0.42;100.00;94241.19;5059147;28;20029;-82
2021/12/24 05:24:19;;;;;;;40.50;19.27;;;;;;;0.59;100.00;94244.09;5058133;28;20060;-82
2021/12/24 05:26:54;;;;;;;41.30;18.52;;;;;;;0.63;100.00;94244.44;5058207;28;20028;-82
2021/12/24 05:29:19;;;;;;;44.47;19.80;;;;;;;0.86;100.00;94233.56;5041801;28;20115;-82
2021/12/24 05:31:45;;;;;;;39.75;19.88;;;;;;;1.12;100.00;94229.22;5058011;28;20450;-82
2021/12/24 05:34:11;;;;;;;40.22;19.13;;;;;;;1.36;100.00;94224.28;5057917;28;20033;-82
2021/12/24 05:36:37;;;;;;;29.65;16.05;;;;;;;1.51;100.00;94224.72;5058174;28;20038;-83
2021/12/24 05:39:04;;;;;;;29.77;15.77;;;;;;;1.69;100.00;94236.88;5058069;28;20437;-82
2021/12/24 05:41:29;;;;;;;33.42;16.00;;;;;;;1.63;100.00;94232.53;5058092;28;20035;-83
2021/12/24 05:43:55;;;;;;;28.45;14.93;;;;;;;1.72;100.00;94224.53;5058063;28;20119;-83
2021/12/24 05:46:21;;;;;;;29.95;14.95;;;;;;;1.92;100.00;94227.66;5041292;28;20570;-82
2021/12/24 05:48:46;;;;;;;34.75;15.40;;;;;;;1.89;100.00;94224.75;5075864;28;20020;-82
2021/12/24 05:51:12;;;;;;;26.85;13.65;;;;;;;1.91;100.00;94222.72;5058129;28;20531;-82
2021/12/24 05:53:38;;;;;;;26.35;13.70;;;;;;;1.82;100.00;94214.47;5059544;28;20028;-82
2021/12/24 05:56:04;;;;;;;26.88;15.13;;;;;;;1.67;100.00;94222.56;5044865;28;20028;-82
2021/12/24 05:58:30;;;;;;;27.00;14.02;;;;;;;1.52;100.00;94226.28;5078334;28;20388;-82
2021/12/24 06:00:56;;;;;;;26.70;14.23;;;;;;;1.42;100.00;94225.97;5061492;28;20020;-82
2021/12/24 06:03:22;;;;;;;34.22;14.13;;;;;;;1.43;100.00;94219.81;5045043;28;20024;-82
2021/12/24 06:05:47;;;;;;;27.60;13.98;;;;;;;1.45;100.00;94210.09;5061359;28;20024;-82
2021/12/24 06:08:13;;;;;;;35.22;15.00;;;;;;;1.39;100.00;94198.03;5061403;28;20429;-82
2021/12/24 06:10:39;;;;;;;28.95;14.60;;;;;;;1.42;100.00;94192.41;5061291;28;20024;-82
2021/12/24 06:13:05;;;;;;;29.08;15.00;;;;;;;1.51;100.00;94204.06;5045263;28;20447;-81
2021/12/24 06:15:41;;;;;;;30.08;14.55;;;;;;;1.62;100.00;94206.94;5044415;28;20024;-82
2021/12/24 06:18:12;;;;;;;27.70;13.90;;;;;;;1.77;100.00;94188.50;5062542;28;20033;-82
2021/12/24 06:20:39;;;;;;;28.70;13.93;;;;;;;1.76;100.00;94181.75;5061886;28;20107;-82
2021/12/24 06:23:07;;;;;;;29.42;13.90;;;;;;;1.62;100.00;94191.44;5044650;28;20073;-82
2021/12/24 06:25:33;;;;;;;27.30;13.75;;;;;;;1.50;100.00;94184.41;5061354;28;20021;-82
2021/12/24 06:27:59;;;;;;;34.88;15.02;;;;;;;1.45;100.00;94179.09;5044518;28;20020;-82
2021/12/24 06:30:29;;;;;;;26.73;13.70;;;;;;;1.50;100.00;94187.00;5077825;28;20035;-82
2021/12/24 06:32:55;;;;;;;27.17;13.13;;;;;;;1.62;100.00;94192.22;5061592;28;20460;-82
2021/12/24 06:35:20;;;;;;;24.77;13.52;;;;;;;1.69;100.00;94182.63;5044278;28;20024;-82
2021/12/24 06:37:46;;;;;;;28.13;13.20;;;;;;;1.61;100.00;94180.31;5044263;28;20118;-82
2021/12/24 06:40:12;;;;;;;26.83;13.15;;;;;;;1.60;100.00;94178.75;5078640;28;20335;-82
2021/12/24 06:42:37;;;;;;;27.73;13.60;;;;;;;1.53;100.00;94188.38;5078550;28;20571;-82
2021/12/24 06:45:03;;;;;;;31.75;13.65;;;;;;;1.57;100.00;94180.97;5060556;28;20052;-82
2021/12/24 06:47:28;;;;;;;30.85;15.50;;;;;;;1.25;100.00;94189.63;5078470;28;20024;-82
2021/12/24 06:49:54;;;;;;;21.20;11.40;;;;;;;1.30;100.00;94197.50;5044160;28;20441;-82
2021/12/24 06:52:19;;;;;;;31.10;13.75;;;;;;;1.13;100.00;94186.94;5044096;28;20393;-82
2021/12/24 06:54:45;;;;;;;30.33;14.48;;;;;;;1.21;100.00;94194.41;5043879;28;20043;-80
2021/12/24 06:57:15;;;;;;;25.92;14.50;;;;;;;1.31;100.00;94177.66;5044072;28;20028;-80
2021/12/24 06:59:40;;;;;;;27.10;13.25;;;;;;;1.36;100.00;94183.75;5078178;28;20078;-82
2021/12/24 07:02:06;;;;;;;32.22;14.63;;;;;;;1.46;100.00;94190.22;5060404;28;20024;-82
2021/12/24 07:04:31;;;;;;;30.88;13.85;;;;;;;1.48;100.00;94186.41;5059752;28;20087;-82
2021/12/24 07:06:57;;;;;;;32.85;14.82;;;;;;;1.72;100.00;94185.78;5043857;28;20034;-82
2021/12/24 07:09:23;;;;;;;27.85;14.70;;;;;;;1.82;100.00;94189.41;5078053;28;20020;-82
2021/12/24 07:11:48;;;;;;;28.08;12.77;;;;;;;1.76;100.00;94187.72;5077963;28;20073;-80
2021/12/24 07:14:14;;;;;;;27.52;13.18;;;;;;;1.89;100.00;94196.31;5043583;28;20029;-82
2021/12/24 07:16:39;;;;;;;33.90;13.30;;;;;;;1.79;100.00;94189.88;5060025;28;20119;-83
2021/12/24 07:19:05;;;;;;;27.00;12.32;;;;;;;1.87;100.00;94188.00;5059922;28;20028;-83
2021/12/24 07:21:30;;;;;;;25.63;13.35;;;;;;;1.93;100.00;94200.03;5043544;28;20457;-83
2021/12/24 07:23:56;;;;;;;27.73;13.95;;;;;;;2.08;100.00;94187.53;5059921;28;20425;-83
2021/12/24 07:26:21;;;;;;;26.45;12.77;;;;;;;1.94;100.00;94196.44;5059538;28;20027;-83
2021/12/24 07:28:48;;;;;;;27.83;13.65;;;;;;;2.02;100.00;94211.69;5069145;28;20025;-83
2021/12/24 07:31:14;;;;;;;26.63;14.48;;;;;;;2.05;100.00;94194.94;5068492;28;20420;-83
2021/12/24 07:33:39;;;;;;;29.23;13.60;;;;;;;1.93;100.00;94189.72;5077494;28;20078;-83
2021/12/24 07:36:05;;;;;;;29.08;14.32;;;;;;;1.84;100.00;94192.56;5076254;28;20025;-83
2021/12/24 07:38:30;;;;;;;27.38;12.90;;;;;;;1.90;100.00;94184.97;5059632;28;20429;-83
2021/12/24 07:40:56;;;;;;;24.23;13.52;;;;;;;1.90;100.00;94190.16;5059583;28;20021;-83
2021/12/24 07:43:21;;;;;;;27.02;13.93;;;;;;;1.91;100.00;94199.47;5059587;28;20025;-83
2021/12/24 07:45:49;;;;;;;26.40;13.30;;;;;;;1.95;100.00;94198.03;5059454;28;20024;-83
2021/12/24 07:48:15;;;;;;;30.65;13.32;;;;;;;2.06;100.00;94178.41;5043304;28;20028;-83
2021/12/24 07:53:13;;;;;;;26.85;12.93;;;;;;;2.32;100.00;94174.72;5079311;28;20108;-83
2021/12/24 07:55:39;;;;;;;26.75;13.77;;;;;;;2.14;100.00;94178.13;5079174;28;20106;-83
2021/12/24 07:58:06;;;;;;;27.90;14.60;;;;;;;2.01;100.00;94175.69;5062827;28;20449;-83
2021/12/24 08:00:32;;;;;;;29.45;15.18;;;;;;;2.02;100.00;94185.03;5097674;28;20456;-83
2021/12/24 08:02:58;;;;;;;23.83;12.45;;;;;;;2.20;100.00;94176.47;5062787;28;20028;-83
2021/12/24 08:05:25;;;;;;;32.00;15.32;;;;;;;2.46;100.00;94177.13;5062629;28;20035;-81
2021/12/24 08:07:52;;;;;;;30.15;13.75;;;;;;;2.69;100.00;94166.81;5079402;28;20020;-81
2021/12/24 08:10:18;;;;;;;31.00;14.65;;;;;;;2.86;100.00;94163.56;5079121;28;20046;-81
2021/12/24 08:12:44;;;;;;;29.15;14.88;;;;;;;3.21;100.00;94169.78;5079129;28;20027;-81
2021/12/24 08:15:09;;;;;;;29.08;14.98;;;;;;;3.22;100.00;94166.97;5078912;28;20067;-80
2021/12/24 08:17:35;;;;;;;22.73;11.48;;;;;;;3.58;100.00;94160.97;5096622;28;20028;-80
2021/12/24 08:20:02;;;;;;;22.38;13.00;;;;;;;3.67;100.00;94167.38;5079057;28;20023;-82
2021/12/24 08:22:27;;;;;;;25.77;13.38;;;;;;;3.73;100.00;94168.28;5079025;28;20494;-84
2021/12/24 08:24:53;;;;;;;35.55;14.63;;;;;;;3.84;100.00;94164.06;5062399;28;20023;-84
2021/12/24 08:27:19;;;;;;;28.30;13.73;;;;;;;4.01;100.00;94169.31;5096989;28;20031;-85
2021/12/24 08:29:45;;;;;;;27.08;14.07;;;;;;;3.90;100.00;94163.16;5079159;28;20024;-85
2021/12/24 08:32:10;;;;;;;25.48;13.02;;;;;;;4.33;100.00;94155.91;5078924;28;20028;-85
2021/12/24 08:34:36;;;;;;;25.05;12.38;;;;;;;4.54;100.00;94164.81;5062061;28;20028;-85
2021/12/24 08:37:02;;;;;;;27.73;12.60;;;;;;;4.45;100.00;94161.03;5078948;28;20031;-83
2021/12/24 08:39:28;;;;;;;26.65;12.02;;;;;;;4.62;100.00;94161.06;5062121;28;20031;-85
2021/12/24 08:41:54;;;;;;;23.17;12.55;;;;;;;4.24;100.00;94165.84;5078674;28;20052;-84
2021/12/24 08:44:25;;;;;;;28.77;14.18;;;;;;;4.39;100.00;94160.94;5078849;28;20043;-84
2021/12/24 08:46:51;;;;;;;29.38;13.93;;;;;;;4.53;100.00;94158.06;5078744;28;20020;-84
2021/12/24 08:49:16;;;;;;;28.13;13.63;;;;;;;4.67;100.00;94161.16;5078616;28;20020;-84
2021/12/24 08:51:42;;;;;;;25.42;13.27;;;;;;;4.75;100.00;94154.78;5078671;28;20111;-84
2021/12/24 08:54:07;;;;;;;28.13;14.50;;;;;;;4.67;100.00;94159.31;5078596;28;20024;-84
2021/12/24 08:56:33;;;;;;;24.05;12.88;;;;;;;4.68;100.00;94165.31;5078601;28;20024;-84
2021/12/24 08:58:58;;;;;;;24.90;13.63;;;;;;;4.55;100.00;94156.00;5078527;28;20027;-84
2021/12/24 09:01:24;;;;;;;30.48;14.43;;;;;;;4.56;100.00;94151.63;5078582;28;20030;-85
2021/12/24 09:03:49;;;;;;;27.08;13.43;;;;;;;4.50;100.00;94158.53;5078561;28;20135;-85
2021/12/24 09:06:15;;;;;;;28.17;13.25;;;;;;;4.92;100.00;94137.41;5078498;28;20089;-85
2021/12/24 09:08:44;;;;;;;28.13;13.93;;;;;;;4.79;100.00;94145.50;5078540;28;20027;-85
2021/12/24 09:11:10;;;;;;;26.63;13.98;;;;;;;4.71;100.00;94146.69;5062203;28;20024;-84
2021/12/24 09:13:36;;;;;;;22.98;12.45;;;;;;;4.89;100.00;94150.06;5061719;28;20030;-85
2021/12/24 09:16:02;;;;;;;25.77;13.40;;;;;;;5.21;100.00;94141.69;5078263;28;20114;-84
2021/12/24 09:18:27;;;;;;;27.70;12.52;;;;;;;5.16;100.00;94144.22;5078396;28;20024;-84
2021/12/24 09:20:54;;;;;;;25.58;13.52;;;;;;;5.24;100.00;94136.81;5061796;28;20020;-82
2021/12/24 09:23:22;;;;;;;24.08;12.65;;;;;;;5.42;100.00;94131.59;5062052;28;20031;-84
2021/12/24 09:25:47;;;;;;;23.98;12.38;;;;;;;5.07;100.00;94128.25;5077680;28;20042;-84
2021/12/24 09:28:13;;;;;;;21.70;12.05;;;;;;;5.18;100.00;94126.59;5080558;28;20016;-84
2021/12/24 09:30:38;;;;;;;23.75;12.07;;;;;;;5.23;100.00;94118.84;5065994;28;20020;-84
2021/12/24 09:33:08;;;;;;;24.42;12.75;;;;;;;5.51;100.00;94124.94;5081773;28;20450;-85
2021/12/24 09:35:33;;;;;;;25.45;13.10;;;;;;;5.28;100.00;94123.34;5061987;28;20028;-85
2021/12/24 09:37:59;;;;;;;23.83;12.40;;;;;;;5.30;100.00;94097.91;5078442;28;20341;-84
2021/12/24 09:40:28;;;;;;;27.00;12.57;;;;;;;5.00;100.00;94099.06;5061464;28;20119;-85
2021/12/24 09:42:53;;;;;;;27.95;14.18;;;;;;;4.97;100.00;94094.34;5065334;28;20024;-85
2021/12/24 09:45:19;;;;;;;24.98;13.25;;;;;;;5.07;100.00;94076.31;5099830;28;20024;-84
2021/12/24 09:47:45;;;;;;;24.65;11.77;;;;;;;5.34;100.00;94088.63;5065414;28;20452;-86
2021/12/24 09:50:13;;;;;;;21.90;11.95;;;;;;;5.62;100.00;94090.25;5081652;28;20028;-87
2021/12/24 09:52:40;;;;;;;22.88;11.88;;;;;;;5.55;100.00;94079.25;5100052;28;20035;-86
2021/12/24 09:55:14;;;;;;;23.10;12.02;;;;;;;5.76;100.00;94072.47;5099543;28;20036;-86
2021/12/24 09:57:41;;;;;;;25.02;11.77;;;;;;;5.50;100.00;94072.19;5081878;28;20428;-86
2021/12/24 10:00:08;;;;;;;28.73;12.73;;;;;;;5.55;100.00;94068.88;5065255;28;20081;-86
2021/12/24 10:02:41;;;;;;;20.65;11.18;;;;;;;5.85;100.00;94062.44;5081510;28;20071;-86
2021/12/24 10:05:29;;;;;;;22.15;12.68;;;;;;;5.82;100.00;94057.72;5081745;28;20024;-86
2021/12/24 10:07:59;;;;;;;28.42;13.32;;;;;;;6.02;100.00;94057.16;5064307;28;20028;-86
2021/12/24 10:10:26;;;;;;;23.23;12.38;;;;;;;6.04;100.00;94055.09;5064881;28;20441;-86
2021/12/24 10:13:25;;;;;;;28.23;14.90;;;;;;;6.18;100.00;94058.09;5065124;28;20024;-86
2021/12/24 10:15:57;;;;;;;46.90;22.08;;;;;;;5.89;100.00;94068.69;5060227;28;20036;-86
2021/12/24 10:18:36;;;;;;;22.25;12.77;;;;;;;5.91;100.00;94065.88;5044800;28;20033;-86
2021/12/24 10:21:17;;;;;;;24.23;12.35;;;;;;;5.94;100.00;94054.97;5079057;28;20388;-86
2021/12/24 10:23:51;;;;;;;22.48;11.95;;;;;;;5.43;100.00;94057.81;5061411;28;20087;-84
2021/12/24 10:26:20;;;;;;;25.95;14.05;;;;;;;5.60;100.00;94039.56;5061124;28;20433;-86
2021/12/24 10:29:05;;;;;;;24.58;13.13;;;;;;;5.68;100.00;94043.53;5060991;28;20429;-86
2021/12/24 10:31:36;;;;;;;29.25;14.70;;;;;;;6.12;100.00;94048.69;5078924;28;20024;-86
2021/12/24 10:34:15;;;;;;;18.33;10.32;;;;;;;6.75;100.00;94044.72;5044075;28;20020;-87
2021/12/24 10:36:54;;;;;;;21.30;11.13;;;;;;;6.65;100.00;94038.41;5087976;28;20031;-85
2021/12/24 10:39:21;;;;;;;19.10;10.65;;;;;;;6.65;100.00;94041.03;5077772;28;20024;-85
2021/12/24 10:41:50;;;;;;;18.90;9.93;;;;;;;6.89;100.00;94052.88;5060828;28;20056;-85
2021/12/24 10:44:24;;;;;;;28.13;14.60;;;;;;;6.87;100.00;94044.53;5060590;28;20501;-85
2021/12/24 10:47:04;;;;;;;22.73;10.93;;;;;;;6.58;100.00;94045.63;5061160;28;20036;-85
2021/12/24 10:52:32;;;;;;;28.92;13.77;;;;;;;6.57;100.00;94038.88;5083666;28;20127;-85
2021/12/24 10:55:00;;;;;;;22.42;11.32;;;;;;;6.31;100.00;94045.69;5083866;28;20073;-85
2021/12/24 10:57:27;;;;;;;27.92;11.95;;;;;;;6.47;100.00;94042.19;5080548;28;20314;-85
2021/12/24 10:59:54;;;;;;;29.85;14.90;;;;;;;6.10;100.00;94050.75;5098417;28;20028;-85
2021/12/24 11:02:23;;;;;;;28.98;14.82;;;;;;;6.20;100.00;94035.19;5063585;28;20032;-85
2021/12/24 11:04:51;;;;;;;30.45;12.75;;;;;;;6.16;100.00;94030.72;5079897;28;20165;-85
2021/12/24 11:07:36;;;;;;;24.02;12.85;;;;;;;5.82;100.00;94028.31;5063947;28;20353;-85
2021/12/24 11:10:09;;;;;;;27.88;14.07;;;;;;;6.01;100.00;94021.75;5098345;28;20081;-85
2021/12/24 11:12:36;;;;;;;23.50;13.00;;;;;;;5.70;100.00;94016.25;5080721;28;20032;-85
2021/12/24 11:15:02;;;;;;;44.83;22.05;;;;;;;5.71;100.00;94017.81;5063424;28;20035;-85
2021/12/24 11:17:56;;;;;;;25.70;13.27;;;;;;;5.36;100.00;94014.59;5063673;28;20429;-82
2021/12/24 11:20:21;;;;;;;21.20;11.80;;;;;;;5.70;100.00;94021.44;5074537;28;20036;-85
2021/12/24 11:22:53;;;;;;;24.23;12.25;;;;;;;5.76;100.00;94017.09;5060014;28;20074;-85
2021/12/24 11:25:19;;;;;;;28.95;12.82;;;;;;;5.51;100.00;94019.19;5043225;28;20119;-85
2021/12/24 11:27:45;;;;;;;27.33;12.50;;;;;;;5.50;100.00;94019.41;5043138;28;20024;-85
2021/12/24 11:30:11;;;;;;;24.60;11.20;;;;;;;5.61;100.00;94012.53;5061871;28;20337;-85
2021/12/24 11:32:37;;;;;;;21.95;12.02;;;;;;;5.76;100.00;93993.69;5063196;28;20327;-85
2021/12/24 11:35:03;;;;;;;65.50;25.98;;;;;;;5.63;100.00;94013.84;5079669;28;20157;-85
2021/12/24 11:37:29;;;;;;;36.85;19.52;;;;;;;5.47;100.00;94015.50;5079665;28;20070;-85
2021/12/24 11:39:55;;;;;;;40.85;18.58;;;;;;;4.60;100.00;94017.78;5079493;28;20031;-85
2021/12/24 11:42:21;;;;;;;34.50;16.98;;;;;;;4.52;100.00;94000.81;5079665;28;20027;-85
2021/12/24 11:44:48;;;;;;;38.55;18.10;;;;;;;4.42;100.00;94011.84;5062704;28;20026;-85
2021/12/24 11:47:14;;;;;;;40.50;19.25;;;;;;;4.58;100.00;94010.22;5079450;28;20024;-85
2021/12/24 11:49:40;;;;;;;89.57;38.05;;;;;;;4.77;100.00;94026.34;5079508;28;20027;-85
2021/12/24 11:52:06;;;;;;;42.38;20.27;;;;;;;4.67;100.00;94013.22;5063094;28;20020;-85
2021/12/24 11:54:31;;;;;;;37.55;19.00;;;;;;;4.60;100.00;94015.19;5079256;28;20024;-85
2021/12/24 11:56:58;;;;;;;39.25;18.88;;;;;;;4.38;100.00;94010.75;5079310;28;20032;-84
2021/12/24 11:59:37;;;;;;;59.38;25.60;;;;;;;4.35;100.00;94013.78;5079286;28;20344;-85
2021/12/24 12:02:03;;;;;;;43.78;21.88;;;;;;;4.24;100.00;94018.03;5079249;28;20020;-85
2021/12/24 12:04:28;;;;;;;37.85;18.85;;;;;;;4.60;100.00;94010.00;5079026;28;20020;-85
2021/12/24 12:07:19;;;;;;;43.03;20.48;;;;;;;4.50;100.00;94010.66;5062694;28;20336;-85
2021/12/24 12:09:46;;;;;;;41.28;20.73;;;;;;;4.31;100.00;94016.09;5079126;28;20027;-85
2021/12/24 12:12:15;;;;;;;44.15;20.38;;;;;;;4.22;100.00;94015.66;5079167;28;20074;-85
2021/12/24 12:14:40;;;;;;;47.30;22.67;;;;;;;4.30;100.00;94008.53;5079517;28;20024;-85
2021/12/24 12:17:07;;;;;;;44.40;20.77;;;;;;;4.29;100.00;94006.97;5062651;28;20462;-85
2021/12/24 12:25:00;;;;;;;42.85;19.70;;;;;;;4.52;100.00;93999.03;5080798;28;20039;-85
2021/12/24 12:27:51;;;;;;;39.40;18.67;;;;;;;4.82;100.00;93989.28;5052988;28;20028;-85
2021/12/24 12:30:20;;;;;;;37.13;19.08;;;;;;;5.04;100.00;93972.94;5052373;28;20040;-85
2021/12/24 12:32:46;;;;;;;46.22;24.17;;;;;;;5.08;100.00;93976.63;5096903;28;20429;-85
2021/12/24 12:35:12;;;;;;;41.78;20.63;;;;;;;5.34;100.00;93964.69;5067610;28;20039;-85
2021/12/24 12:37:53;;;;;;;32.92;17.08;;;;;;;5.52;100.00;93981.78;5061833;28;20437;-85
2021/12/24 12:40:19;;;;;;;40.25;19.08;;;;;;;5.48;100.00;93983.31;5042348;28;20036;-85
2021/12/24 12:42:56;;;;;;;38.42;20.13;;;;;;;5.59;100.00;93973.78;5076531;28;20349;-85
2021/12/24 12:45:45;;;;;;;40.45;20.15;;;;;;;5.83;100.00;93968.28;5078803;28;20024;-85
2021/12/24 12:48:12;;;;;;;39.92;20.80;;;;;;;5.75;100.00;93963.53;5096594;28;20391;-85
2021/12/24 12:50:54;;;;;;;40.78;21.02;;;;;;;5.46;100.00;93961.97;5078905;28;20031;-85
2021/12/24 12:53:26;;;;;;;51.50;25.00;;;;;;;4.97;100.00;93952.34;5042054;28;20036;-85
2021/12/24 12:56:21;;;;;;;84.80;45.13;;;;;;;4.84;100.00;93960.50;5076246;28;20033;-85
2021/12/24 12:59:06;;;;;;;49.47;25.60;;;;;;;4.85;100.00;93946.50;5058532;28;20024;-84
2021/12/24 13:01:33;;;;;;;54.17;26.98;;;;;;;4.91;100.00;93953.31;5058574;28;20097;-85
2021/12/24 13:04:00;;;;;;;54.72;27.08;;;;;;;5.06;100.00;93952.72;5062810;28;20341;-85
2021/12/24 13:06:48;;;;;;;80.97;38.75;;;;;;;5.01;100.00;93950.03;5062694;28;20028;-84
2021/12/24 13:09:20;;;;;;;59.20;28.50;;;;;;;4.87;100.00;93937.41;5080431;28;20066;-85
2021/12/24 13:11:53;;;;;;;55.15;25.35;;;;;;;5.19;100.00;93933.38;5062662;28;20024;-84
2021/12/24 13:14:20;;;;;;;45.23;22.60;;;;;;;5.27;100.00;93926.94;5062997;28;20036;-84